createdAt,value
2018-12-27T00:01:10.767Z,20.90
2018-12-27T00:03:40.458Z,27.40
2018-12-27T00:06:10.137Z,26.23
2018-12-27T00:08:40.070Z,21.50
2018-12-27T00:13:48.291Z,17.40
2018-12-27T00:16:17.973Z,20.77
2018-12-27T00:18:47.711Z,17.90
2018-12-27T00:21:17.359Z,21.63
2018-12-27T00:23:47.965Z,18.80
2018-12-27T00:26:18.599Z,17.90
2018-12-27T00:28:49.794Z,22.93
2018-12-27T00:31:19.552Z,22.70
2018-12-27T00:33:49.460Z,20.13
2018-12-27T00:36:19.233Z,21.23
2018-12-27T00:38:48.891Z,21.40
2018-12-27T00:41:19.977Z,19.77
2018-12-27T00:46:28.056Z,21.23
2018-12-27T00:48:58.090Z,18.17
2018-12-27T00:51:27.805Z,13.57
2018-12-27T00:53:58.124Z,17.37
2018-12-27T00:56:28.598Z,18.73
2018-12-27T00:58:58.748Z,14.23
2018-12-27T01:01:28.585Z,19.03
2018-12-27T01:03:59.068Z,23.97
2018-12-27T01:06:29.070Z,22.47
2018-12-27T01:08:58.751Z,23.50
2018-12-27T01:11:28.641Z,24.13
2018-12-27T01:13:58.328Z,21.20
2018-12-27T01:16:30.786Z,24.97
2018-12-27T01:19:00.704Z,24.60
2018-12-27T01:21:31.751Z,22.47
2018-12-27T01:24:02.668Z,19.30
2018-12-27T01:26:33.215Z,26.53
2018-12-27T01:29:02.838Z,26.90
2018-12-27T01:31:32.550Z,23.37
2018-12-27T01:34:02.220Z,19.47
2018-12-27T01:36:31.857Z,22.30
2018-12-27T01:39:02.701Z,25.07
2018-12-27T01:41:32.374Z,20.00
2018-12-27T01:44:02.078Z,18.57
2018-12-27T01:46:31.849Z,19.97
2018-12-27T01:49:01.499Z,22.70
2018-12-27T01:51:31.173Z,18.63
2018-12-27T01:54:00.786Z,14.87
2018-12-27T01:56:30.687Z,13.93
2018-12-27T01:59:00.441Z,16.87
2018-12-27T02:01:30.688Z,14.20
2018-12-27T02:04:00.369Z,15.17
2018-12-27T02:06:30.023Z,16.97
2018-12-27T02:08:59.857Z,18.27
2018-12-27T02:11:29.854Z,11.83
2018-12-27T02:13:59.581Z,13.30
2018-12-27T02:16:29.265Z,10.90
2018-12-27T02:18:59.327Z,13.07
2018-12-27T02:21:30.598Z,14.10
2018-12-27T02:24:00.822Z,12.27
2018-12-27T02:26:30.924Z,16.87
2018-12-27T02:29:00.854Z,12.97
2018-12-27T02:31:30.991Z,11.90
2018-12-27T02:34:00.799Z,10.00
2018-12-27T02:36:31.926Z,10.13
2018-12-27T02:39:02.294Z,10.33
2018-12-27T02:41:32.079Z,9.13
2018-12-27T02:44:01.741Z,9.47
2018-12-27T02:46:31.508Z,8.73
2018-12-27T02:49:01.955Z,7.57
2018-12-27T02:51:31.722Z,5.43
2018-12-27T02:54:01.359Z,7.03
2018-12-27T02:56:31.498Z,5.77
2018-12-27T02:59:01.698Z,4.60
2018-12-27T03:01:31.411Z,4.80
2018-12-27T03:04:01.439Z,4.83
2018-12-27T03:06:31.111Z,3.27
2018-12-27T03:09:00.808Z,3.40
2018-12-27T03:11:31.350Z,3.93
2018-12-27T03:14:01.014Z,3.77
2018-12-27T03:16:30.693Z,2.83
2018-12-27T03:19:00.389Z,4.47
2018-12-27T03:21:30.398Z,3.97
2018-12-27T03:24:00.086Z,4.27
2018-12-27T03:26:29.720Z,2.67
2018-12-27T03:28:59.420Z,3.37
2018-12-27T03:31:29.067Z,2.47
2018-12-27T03:33:58.764Z,3.03
2018-12-27T03:36:28.415Z,2.93
2018-12-27T03:38:58.105Z,3.03
2018-12-27T03:41:27.743Z,2.17
2018-12-27T03:43:57.424Z,3.23
2018-12-27T03:46:27.185Z,2.60
2018-12-27T03:48:56.828Z,2.23
2018-12-27T03:51:26.549Z,2.73
2018-12-27T03:53:56.267Z,2.13
2018-12-27T03:56:26.037Z,2.10
2018-12-27T03:58:55.684Z,4.23
2018-12-27T04:01:25.350Z,2.27
2018-12-27T04:04:01.275Z,2.43
2018-12-27T04:06:24.712Z,3.70
2018-12-27T04:08:54.360Z,4.13
2018-12-27T04:11:24.046Z,2.67
2018-12-27T04:13:53.699Z,2.83
2018-12-27T04:16:23.386Z,3.27
2018-12-27T04:18:53.050Z,3.13
2018-12-27T04:21:22.728Z,7.03
2018-12-27T04:23:52.428Z,4.20
2018-12-27T04:26:22.083Z,4.90
2018-12-27T04:28:51.742Z,6.13
2018-12-27T04:31:21.368Z,7.00
2018-12-27T04:33:51.145Z,6.77
2018-12-27T04:36:20.790Z,11.17
2018-12-27T04:38:50.452Z,16.23
2018-12-27T04:41:20.123Z,14.97
2018-12-27T04:43:49.887Z,18.33
2018-12-27T04:46:19.522Z,15.67
2018-12-27T04:48:49.212Z,21.30
2018-12-27T04:51:18.911Z,22.53
2018-12-27T04:53:48.569Z,28.40
2018-12-27T04:56:18.260Z,27.50
2018-12-27T04:58:48.059Z,35.77
2018-12-27T05:01:17.704Z,40.97
2018-12-27T05:03:47.360Z,35.00
2018-12-27T05:06:17.054Z,40.97
2018-12-27T05:08:46.722Z,41.40
2018-12-27T05:11:16.432Z,36.97
2018-12-27T05:13:46.176Z,37.37
2018-12-27T05:16:15.885Z,43.20
2018-12-27T05:18:45.571Z,32.20
2018-12-27T05:21:15.234Z,33.13
2018-12-27T05:23:44.966Z,30.33
2018-12-27T05:26:14.671Z,33.73
2018-12-27T05:28:44.402Z,34.53
2018-12-27T05:31:14.053Z,34.03
2018-12-27T05:33:43.874Z,27.40
2018-12-27T05:36:13.591Z,30.77
2018-12-27T05:38:43.279Z,28.03
2018-12-27T05:41:13.089Z,31.80
2018-12-27T05:43:42.752Z,30.80
2018-12-27T05:46:12.481Z,26.40
2018-12-27T05:48:44.731Z,31.40
2018-12-27T05:51:14.374Z,25.47
2018-12-27T05:53:44.043Z,25.13
2018-12-27T05:56:13.738Z,27.87
2018-12-27T05:58:43.473Z,28.63
2018-12-27T06:01:13.189Z,29.30
2018-12-27T06:03:42.860Z,25.63
2018-12-27T06:06:12.545Z,27.90
2018-12-27T06:08:42.174Z,21.63
2018-12-27T06:11:11.892Z,24.60
2018-12-27T06:13:41.580Z,21.13
2018-12-27T06:16:11.259Z,18.43
2018-12-27T06:18:40.949Z,22.70
2018-12-27T06:21:11.986Z,18.53
2018-12-27T06:23:41.644Z,23.97
2018-12-27T06:26:11.335Z,17.37
2018-12-27T06:28:41.063Z,19.53
2018-12-27T06:31:10.796Z,21.30
2018-12-27T06:33:40.442Z,17.77
2018-12-27T06:36:10.117Z,15.80
2018-12-27T06:38:39.837Z,19.17
2018-12-27T06:41:09.622Z,17.17
2018-12-27T06:43:39.282Z,17.23
2018-12-27T06:46:08.941Z,17.13
2018-12-27T06:48:38.700Z,16.43
2018-12-27T06:51:08.452Z,17.57
2018-12-27T06:53:38.075Z,17.27
2018-12-27T06:56:07.825Z,10.97
2018-12-27T06:58:37.937Z,12.23
2018-12-27T07:01:07.138Z,13.10
2018-12-27T07:03:36.891Z,13.83
2018-12-27T07:06:06.615Z,12.23
2018-12-27T07:08:36.257Z,11.57
2018-12-27T07:11:05.938Z,9.97
2018-12-27T07:13:36.894Z,13.07
2018-12-27T07:16:06.637Z,11.07
2018-12-27T07:18:36.365Z,11.57
2018-12-27T07:21:06.026Z,11.50
2018-12-27T07:23:35.792Z,10.17
2018-12-27T07:26:05.503Z,12.77
2018-12-27T07:28:36.301Z,9.90
2018-12-27T07:31:05.983Z,10.10
2018-12-27T07:33:37.609Z,10.70
2018-12-27T07:36:08.914Z,9.53
2018-12-27T07:38:38.688Z,7.67
2018-12-27T07:41:09.739Z,6.60
2018-12-27T07:43:41.102Z,8.03
2018-12-27T07:46:11.108Z,9.70
2018-12-27T07:48:40.393Z,8.17
2018-12-27T07:51:11.460Z,6.80
2018-12-27T07:53:41.187Z,8.53
2018-12-27T07:56:10.979Z,9.37
2018-12-27T07:58:43.227Z,7.03
2018-12-27T08:01:12.912Z,9.50
2018-12-27T08:03:42.783Z,9.50
2018-12-27T08:06:12.502Z,12.40
2018-12-27T08:08:42.208Z,12.43
2018-12-27T08:11:11.873Z,14.07
2018-12-27T08:13:41.562Z,11.40
2018-12-27T08:16:11.307Z,11.50
2018-12-27T08:18:41.043Z,16.03
2018-12-27T08:21:10.699Z,14.80
2018-12-27T08:23:40.419Z,14.50
2018-12-27T08:26:10.089Z,9.50
2018-12-27T08:28:41.089Z,13.90
2018-12-27T08:31:10.856Z,11.97
2018-12-27T08:33:40.481Z,8.27
2018-12-27T08:36:10.187Z,11.77
2018-12-27T08:38:39.860Z,12.53
2018-12-27T08:41:09.538Z,10.13
2018-12-27T08:43:39.427Z,10.27
2018-12-27T08:46:09.104Z,9.60
2018-12-27T08:48:38.795Z,7.97
2018-12-27T08:51:08.453Z,9.70
2018-12-27T08:53:38.097Z,5.20
2018-12-27T08:56:09.005Z,6.77
2018-12-27T08:58:38.786Z,6.80
2018-12-27T09:01:10.981Z,8.20
2018-12-27T09:03:40.665Z,5.77
2018-12-27T09:06:10.329Z,5.87
2018-12-27T09:08:40.014Z,5.63
2018-12-27T09:11:09.717Z,5.50
2018-12-27T09:13:40.330Z,6.07
2018-12-27T09:16:10.811Z,6.20
2018-12-27T09:18:40.536Z,6.33
2018-12-27T09:21:12.693Z,8.10
2018-12-27T09:23:42.513Z,6.33
2018-12-27T09:26:13.526Z,6.10
2018-12-27T09:28:44.455Z,7.13
2018-12-27T09:31:14.185Z,7.57
2018-12-27T09:33:43.822Z,5.63
2018-12-27T09:36:13.543Z,5.07
2018-12-27T09:38:44.622Z,6.23
2018-12-27T09:41:14.271Z,5.23
2018-12-27T09:43:45.190Z,7.63
2018-12-27T09:46:14.950Z,9.53
2018-12-27T09:48:44.656Z,8.70
2018-12-27T09:51:14.303Z,6.83
2018-12-27T09:53:43.974Z,5.57
2018-12-27T09:56:13.709Z,8.33
2018-12-27T09:58:45.789Z,5.77
2018-12-27T10:01:16.120Z,5.40
2018-12-27T10:03:47.298Z,4.77
2018-12-27T10:06:18.292Z,4.20
2018-12-27T10:08:47.981Z,5.67
2018-12-27T10:11:18.939Z,3.80
2018-12-27T10:13:49.848Z,6.80
2018-12-27T10:16:19.539Z,4.80
2018-12-27T10:18:50.107Z,5.70
2018-12-27T10:21:19.776Z,5.43
2018-12-27T10:23:49.433Z,4.00
2018-12-27T10:26:25.271Z,3.80
2018-12-27T10:28:54.995Z,3.97
2018-12-27T10:31:24.774Z,7.07
2018-12-27T10:33:55.558Z,4.63
2018-12-27T10:36:25.292Z,6.57
2018-12-27T10:39:00.287Z,7.23
2018-12-27T10:41:29.982Z,6.67
2018-12-27T10:43:59.633Z,6.30
2018-12-27T10:46:30.767Z,8.10
2018-12-27T10:49:01.644Z,6.03
2018-12-27T10:51:32.608Z,7.87
2018-12-27T10:54:02.298Z,7.40
2018-12-27T10:56:32.023Z,8.67
2018-12-27T10:59:01.742Z,6.83
2018-12-27T11:01:31.486Z,8.17
2018-12-27T11:04:01.153Z,4.93
2018-12-27T11:06:30.947Z,6.33
2018-12-27T11:09:00.681Z,5.50
2018-12-27T11:11:30.346Z,4.17
2018-12-27T11:14:01.365Z,3.77
2018-12-27T11:16:31.101Z,5.00
2018-12-27T11:19:00.827Z,5.67
2018-12-27T11:21:30.480Z,4.73
2018-12-27T11:24:01.407Z,5.13
2018-12-27T11:26:31.112Z,5.37
2018-12-27T11:29:00.827Z,7.23
2018-12-27T11:31:30.568Z,5.67
2018-12-27T11:34:00.294Z,5.87
2018-12-27T11:36:30.025Z,3.83
2018-12-27T11:38:59.733Z,5.30
2018-12-27T11:41:29.476Z,5.17
2018-12-27T11:43:59.171Z,4.10
2018-12-27T11:46:28.827Z,3.63
2018-12-27T11:48:59.765Z,5.43
2018-12-27T11:51:29.446Z,4.10
2018-12-27T11:55:02.088Z,6.13
2018-12-27T11:57:31.733Z,5.30
2018-12-27T12:00:01.374Z,6.00
2018-12-27T12:02:31.498Z,4.73
2018-12-27T12:05:01.229Z,4.20
2018-12-27T12:07:30.857Z,5.73
2018-12-27T12:10:00.542Z,7.10
2018-12-27T12:12:30.173Z,7.67
2018-12-27T12:14:59.971Z,7.97
2018-12-27T12:17:29.553Z,9.97
2018-12-27T12:19:59.199Z,12.07
2018-12-27T12:22:28.908Z,18.73
2018-12-27T12:24:58.566Z,17.37
2018-12-27T12:27:28.242Z,19.90
2018-12-27T12:29:57.920Z,16.17
2018-12-27T12:32:28.902Z,12.10
2018-12-27T12:34:58.548Z,10.00
2018-12-27T12:37:28.281Z,8.03
2018-12-27T12:39:58.072Z,9.53
2018-12-27T12:42:32.950Z,11.90
2018-12-27T12:44:57.572Z,12.20
2018-12-27T12:47:27.328Z,9.57
2018-12-27T12:49:57.012Z,8.90
2018-12-27T12:52:26.710Z,16.23
2018-12-27T12:54:56.384Z,14.67
2018-12-27T12:57:26.050Z,12.40
2018-12-27T12:59:55.727Z,13.33
2018-12-27T13:02:25.487Z,12.77
2018-12-27T13:04:55.175Z,13.60
2018-12-27T13:07:24.887Z,10.50
2018-12-27T13:09:54.658Z,9.83
2018-12-27T13:12:26.146Z,16.87
2018-12-27T13:14:55.898Z,16.80
2018-12-27T13:17:25.558Z,8.63
2018-12-27T13:19:55.243Z,8.77
2018-12-27T13:22:24.978Z,10.17
2018-12-27T13:24:54.777Z,10.57
2018-12-27T13:27:24.449Z,9.47
2018-12-27T13:29:55.492Z,10.47
2018-12-27T13:32:25.145Z,8.93
2018-12-27T13:34:54.837Z,11.27
2018-12-27T13:37:27.005Z,10.30
2018-12-27T13:39:57.155Z,11.60
2018-12-27T13:43:57.635Z,12.30
2018-12-27T13:46:27.279Z,11.23
2018-12-27T13:48:56.964Z,14.90
2018-12-27T13:51:26.793Z,13.90
2018-12-27T13:54:03.631Z,12.30
2018-12-27T13:56:33.316Z,11.57
2018-12-27T13:59:02.994Z,15.10
2018-12-27T14:01:34.008Z,11.27
2018-12-27T14:04:03.806Z,9.97
2018-12-27T14:06:33.473Z,8.50
2018-12-27T14:09:06.205Z,10.03
2018-12-27T14:11:36.360Z,12.43
2018-12-27T14:14:07.451Z,9.43
2018-12-27T14:16:37.206Z,8.83
2018-12-27T14:19:09.398Z,10.30
2018-12-27T14:21:39.116Z,9.47
2018-12-27T14:24:08.910Z,10.20
2018-12-27T14:26:38.895Z,7.90
2018-12-27T14:29:09.860Z,10.63
2018-12-27T14:31:39.681Z,7.83
2018-12-27T14:34:09.911Z,5.53
2018-12-27T14:36:39.992Z,6.87
2018-12-27T14:39:12.772Z,6.80
2018-12-27T14:41:49.039Z,6.90
2018-12-27T14:44:18.845Z,12.13
2018-12-27T14:46:48.830Z,6.70
2018-12-27T14:49:18.577Z,7.27
2018-12-27T14:51:48.265Z,7.43
2018-12-27T14:54:20.654Z,6.90
2018-12-27T14:56:50.390Z,7.27
2018-12-27T14:59:20.137Z,7.23
2018-12-27T15:01:49.890Z,7.00
2018-12-27T15:04:19.689Z,5.33
2018-12-27T15:06:50.403Z,6.80
2018-12-27T15:09:20.139Z,7.57
2018-12-27T15:11:51.287Z,6.30
2018-12-27T15:14:20.966Z,8.13
2018-12-27T15:16:50.659Z,5.17
2018-12-27T15:19:22.886Z,6.23
2018-12-27T15:21:54.072Z,6.50
2018-12-27T15:24:24.502Z,5.87
2018-12-27T15:26:56.891Z,5.83
2018-12-27T15:29:26.538Z,7.67
2018-12-27T15:31:56.194Z,5.73
2018-12-27T15:34:27.363Z,7.30
2018-12-27T15:36:57.071Z,5.97
2018-12-27T15:39:26.732Z,6.30
2018-12-27T15:41:56.550Z,6.53
2018-12-27T15:44:26.305Z,8.53
2018-12-27T15:46:57.378Z,8.10
2018-12-27T15:49:27.029Z,9.87
2018-12-27T15:51:56.780Z,11.20
2018-12-27T15:54:29.040Z,11.40
2018-12-27T15:56:59.975Z,9.87
2018-12-27T15:59:29.703Z,10.10
2018-12-27T16:02:02.085Z,7.97
2018-12-27T16:04:31.821Z,13.03
2018-12-27T16:07:02.160Z,10.07
2018-12-27T16:09:31.365Z,10.67
2018-12-27T16:12:01.905Z,13.37
2018-12-27T16:14:33.315Z,12.20
2018-12-27T16:17:03.672Z,10.07
2018-12-27T16:19:38.921Z,8.23
2018-12-27T16:22:08.915Z,10.73
2018-12-27T16:24:38.672Z,5.50
2018-12-27T16:27:08.681Z,6.03
2018-12-27T16:29:38.378Z,7.13
2018-12-27T16:32:09.422Z,10.50
2018-12-27T16:34:39.173Z,11.40
2018-12-27T16:37:09.951Z,13.93
2018-12-27T16:39:39.725Z,14.63
2018-12-27T16:42:10.861Z,14.20
2018-12-27T16:44:40.705Z,20.13
2018-12-27T16:47:10.775Z,26.10
2018-12-27T16:49:40.553Z,21.83
2018-12-27T16:52:10.319Z,24.80
2018-12-27T16:54:40.086Z,30.87
2018-12-27T16:57:09.863Z,32.20
2018-12-27T16:59:39.686Z,31.47
2018-12-27T17:02:09.377Z,32.20
2018-12-27T17:04:42.036Z,28.93
2018-12-27T17:07:16.230Z,24.23
2018-12-27T17:09:45.753Z,24.27
2018-12-27T17:12:15.482Z,24.57
2018-12-27T17:14:45.323Z,19.27
2018-12-27T17:17:16.266Z,26.93
2018-12-27T17:19:45.930Z,19.67
2018-12-27T17:22:15.659Z,24.60
2018-12-27T17:24:46.967Z,18.03
2018-12-27T17:27:16.704Z,14.73
2018-12-27T17:29:46.363Z,15.23
2018-12-27T17:32:16.047Z,17.23
2018-12-27T17:34:45.713Z,14.43
2018-12-27T17:37:15.387Z,12.63
2018-12-27T17:39:46.484Z,17.27
2018-12-27T17:42:16.332Z,14.30
2018-12-27T17:44:46.694Z,17.10
2018-12-27T17:47:17.845Z,12.30
2018-12-27T17:49:47.745Z,13.63
2018-12-27T17:52:17.394Z,12.27
2018-12-27T17:54:49.595Z,11.83
2018-12-27T17:57:19.333Z,13.67
2018-12-27T17:59:49.191Z,9.80
2018-12-27T18:02:21.825Z,11.00
2018-12-27T18:04:51.615Z,12.20
2018-12-27T18:07:21.303Z,18.13
2018-12-27T18:09:51.146Z,13.60
2018-12-27T18:12:21.482Z,12.90
2018-12-27T18:15:01.331Z,13.57
2018-12-27T18:17:31.070Z,17.47
2018-12-27T18:20:00.764Z,15.67
2018-12-27T18:22:30.577Z,21.20
2018-12-27T18:25:02.697Z,19.13
2018-12-27T18:27:33.708Z,21.90
2018-12-27T18:30:04.089Z,24.47
2018-12-27T18:32:33.750Z,25.07
2018-12-27T18:35:03.500Z,28.60
2018-12-27T18:37:37.608Z,31.60
2018-12-27T18:40:03.028Z,29.37
2018-12-27T18:42:32.896Z,26.47
2018-12-27T18:45:02.642Z,30.33
2018-12-27T18:47:32.383Z,31.60
2018-12-27T18:50:02.125Z,27.13
2018-12-27T18:52:33.273Z,35.83
2018-12-27T18:55:02.926Z,32.00
2018-12-27T18:57:32.618Z,27.30
2018-12-27T19:00:02.446Z,29.30
2018-12-27T19:02:32.829Z,33.70
2018-12-27T19:05:02.522Z,25.83
2018-12-27T19:07:32.475Z,27.23
2018-12-27T19:10:03.488Z,30.17
2018-12-27T19:12:44.707Z,26.20
2018-12-27T19:15:17.903Z,24.67
2018-12-27T19:18:00.780Z,24.03
2018-12-27T19:20:30.757Z,23.10
2018-12-27T19:23:12.471Z,23.40
2018-12-27T19:25:42.197Z,29.27
2018-12-27T19:28:12.818Z,25.70
2018-12-27T19:30:43.719Z,24.70
2018-12-27T19:33:13.455Z,22.50
2018-12-27T19:35:43.270Z,24.33
2018-12-27T19:38:15.510Z,19.90
2018-12-27T19:40:47.654Z,26.37
2018-12-27T19:43:19.773Z,21.50
2018-12-27T19:45:49.451Z,20.53
2018-12-27T19:48:19.137Z,23.10
2018-12-27T19:50:48.901Z,25.63
2018-12-27T19:53:18.614Z,25.63
2018-12-27T19:55:48.318Z,23.80
2018-12-27T19:58:19.259Z,24.00
2018-12-27T20:00:50.247Z,22.97
2018-12-27T20:03:20.237Z,20.50
2018-12-27T20:05:49.954Z,21.60
2018-12-27T20:08:21.096Z,27.53
2018-12-27T20:10:50.775Z,25.00
2018-12-27T20:13:20.439Z,25.47
2018-12-27T20:15:50.151Z,20.60
2018-12-27T20:18:19.937Z,23.87
2018-12-27T20:20:49.618Z,26.03
2018-12-27T20:23:19.375Z,23.07
2018-12-27T20:25:49.047Z,18.63
2018-12-27T20:28:18.773Z,18.87
2018-12-27T20:30:49.735Z,18.50
2018-12-27T20:33:19.615Z,19.03
2018-12-27T20:35:49.663Z,16.67
2018-12-27T20:38:19.387Z,19.50
2018-12-27T20:40:49.087Z,20.93
2018-12-27T20:43:22.641Z,17.50
2018-12-27T20:45:52.449Z,18.93
2018-12-27T20:48:23.542Z,21.57
2018-12-27T20:50:54.483Z,19.10
2018-12-27T20:53:25.929Z,18.27
2018-12-27T20:55:55.693Z,16.40
2018-12-27T20:58:25.388Z,16.90
2018-12-27T21:00:56.639Z,41.77
2018-12-27T21:03:26.461Z,23.20
2018-12-27T21:05:56.308Z,20.67
2018-12-27T21:08:26.072Z,23.83
2018-12-27T21:10:55.791Z,25.50
2018-12-27T21:13:26.884Z,19.73
2018-12-27T21:15:56.673Z,18.77
2018-12-27T21:18:26.454Z,18.17
2018-12-27T21:20:56.385Z,18.77
2018-12-27T21:23:26.155Z,22.67
2018-12-27T21:25:55.877Z,18.43
2018-12-27T21:28:25.604Z,20.93
2018-12-27T21:30:55.558Z,13.70
2018-12-27T21:33:26.573Z,17.33
2018-12-27T21:35:56.359Z,14.30
2018-12-27T21:38:26.041Z,14.90
2018-12-27T21:40:55.854Z,13.17
2018-12-27T21:43:25.587Z,15.77
2018-12-27T21:45:55.317Z,14.63
2018-12-27T21:48:25.042Z,15.93
2018-12-27T21:50:54.941Z,15.83
2018-12-27T21:53:24.616Z,13.33
2018-12-27T21:55:54.363Z,15.70
2018-12-27T21:58:24.036Z,14.50
2018-12-27T22:00:53.746Z,15.77
2018-12-27T22:03:26.000Z,12.10
2018-12-27T22:05:55.686Z,14.33
2018-12-27T22:08:28.636Z,14.00
2018-12-27T22:10:55.530Z,12.30
2018-12-27T22:13:25.314Z,14.53
2018-12-27T22:15:55.090Z,14.20
2018-12-27T22:18:24.802Z,13.00
2018-12-27T22:20:54.465Z,14.37
2018-12-27T22:23:24.218Z,12.80
2018-12-27T22:25:53.938Z,15.37
2018-12-27T22:28:23.649Z,11.73
2018-12-27T22:30:53.316Z,16.17
2018-12-27T22:33:22.970Z,15.87
2018-12-27T22:35:52.659Z,13.40
2018-12-27T22:38:22.368Z,15.30
2018-12-27T22:40:52.044Z,13.93
2018-12-27T22:43:21.952Z,17.23
2018-12-27T22:45:51.854Z,12.50
2018-12-27T22:48:21.651Z,14.90
2018-12-27T22:50:51.387Z,14.90
2018-12-27T22:53:21.055Z,14.73
2018-12-27T22:55:56.879Z,12.80
2018-12-27T22:58:26.537Z,16.10
2018-12-27T23:00:56.426Z,14.67
2018-12-27T23:03:26.158Z,14.00
2018-12-27T23:05:55.874Z,14.10
2018-12-27T23:08:25.519Z,15.07
2018-12-27T23:15:32.578Z,13.33
2018-12-27T23:18:02.382Z,15.13
2018-12-27T23:20:32.130Z,11.10
2018-12-27T23:23:04.426Z,13.03
2018-12-27T23:25:34.452Z,16.97
2018-12-27T23:28:04.134Z,11.63
2018-12-27T23:30:34.037Z,12.13
2018-12-27T23:33:04.544Z,6.97
2018-12-27T23:35:34.323Z,9.10
2018-12-27T23:38:04.040Z,10.13
2018-12-27T23:40:33.681Z,8.27
2018-12-27T23:43:03.374Z,8.47
2018-12-27T23:45:33.045Z,5.50
2018-12-27T23:48:02.722Z,8.33
2018-12-27T23:50:33.022Z,6.83
2018-12-27T23:53:02.711Z,5.57
2018-12-27T23:55:32.566Z,7.43
2018-12-27T23:58:02.233Z,7.37
